sensor_id;sensor_type;location;lat;lon;timestamp;temperature;humidity
17333;DHT22;8784;50.94667800;7.08448400;2023-04-25T00:02:23;9.20;99.90
17333;DHT22;8784;50.94667800;7.08448400;2023-04-25T00:04:50;9.20;99.90
17333;DHT22;8784;50.94667800;7.08448400;2023-04-25T00:07:17;9.20;99.90
17333;DHT22;8784;50.94667800;7.08448400;2023-04-25T00:09:45;9.20;99.90
17333;DHT22;8784;50.94667800;7.08448400;2023-04-25T00:12:13;9.10;99.90
17333;DHT22;8784;50.94667800;7.08448400;2023-04-25T00:14:43;9.10;99.90
17333;DHT22;8784;50.94667800;7.08448400;2023-04-25T00:17:11;9.10;99.90
17333;DHT22;8784;50.94667800;7.08448400;2023-04-25T00:19:37;9.20;99.90
17333;DHT22;8784;50.94667800;7.08448400;2023-04-25T00:22:04;9.20;99.90
17333;DHT22;8784;50.94667800;7.08448400;2023-04-25T00:24:31;9.10;99.90
17333;DHT22;8784;50.94667800;7.08448400;2023-04-25T00:26:58;9.10;99.90
17333;DHT22;8784;50.94667800;7.08448400;2023-04-25T00:29:27;9.00;99.90
17333;DHT22;8784;50.94667800;7.08448400;2023-04-25T00:31:53;8.90;99.90
17333;DHT22;8784;50.94667800;7.08448400;2023-04-25T00:34:20;8.90;99.90
17333;DHT22;8784;50.94667800;7.08448400;2023-04-25T00:36:47;8.80;99.90
17333;DHT22;8784;50.94667800;7.08448400;2023-04-25T00:39:14;8.80;99.90
17333;DHT22;8784;50.94667800;7.08448400;2023-04-25T00:41:41;8.80;99.90
17333;DHT22;8784;50.94667800;7.08448400;2023-04-25T00:44:08;8.70;99.90
17333;DHT22;8784;50.94667800;7.08448400;2023-04-25T00:46:38;8.70;99.90
17333;DHT22;8784;50.94667800;7.08448400;2023-04-25T00:49:05;8.70;99.90
17333;DHT22;8784;50.94667800;7.08448400;2023-04-25T00:51:33;8.70;99.90
17333;DHT22;8784;50.94667800;7.08448400;2023-04-25T00:54:00;8.60;99.90
17333;DHT22;8784;50.94667800;7.08448400;2023-04-25T00:56:27;8.60;99.90
17333;DHT22;8784;50.94667800;7.08448400;2023-04-25T00:58:55;8.50;99.90
17333;DHT22;8784;50.94667800;7.08448400;2023-04-25T01:01:22;8.50;99.90
17333;DHT22;8784;50.94667800;7.08448400;2023-04-25T01:03:51;8.40;99.90
17333;DHT22;8784;50.94667800;7.08448400;2023-04-25T01:06:19;8.40;99.90
17333;DHT22;8784;50.94667800;7.08448400;2023-04-25T01:08:47;8.30;99.90
17333;DHT22;8784;50.94667800;7.08448400;2023-04-25T01:11:14;8.30;99.90
17333;DHT22;8784;50.94667800;7.08448400;2023-04-25T01:13:41;8.20;99.90
17333;DHT22;8784;50.94667800;7.08448400;2023-04-25T01:16:08;8.20;99.90
17333;DHT22;8784;50.94667800;7.08448400;2023-04-25T01:18:36;8.10;99.90
17333;DHT22;8784;50.94667800;7.08448400;2023-04-25T01:21:08;8.10;99.90
17333;DHT22;8784;50.94667800;7.08448400;2023-04-25T01:23:36;8.10;99.90
17333;DHT22;8784;50.94667800;7.08448400;2023-04-25T01:26:04;8.10;99.90
17333;DHT22;8784;50.94667800;7.08448400;2023-04-25T01:28:31;8.20;99.90
17333;DHT22;8784;50.94667800;7.08448400;2023-04-25T01:30:59;8.20;99.90
17333;DHT22;8784;50.94667800;7.08448400;2023-04-25T01:33:26;8.20;99.90
17333;DHT22;8784;50.94667800;7.08448400;2023-04-25T01:35:53;8.30;99.90
17333;DHT22;8784;50.94667800;7.08448400;2023-04-25T01:38:22;8.30;99.90
17333;DHT22;8784;50.94667800;7.08448400;2023-04-25T01:40:49;8.40;99.90
17333;DHT22;8784;50.94667800;7.08448400;2023-04-25T01:43:17;8.40;99.90
17333;DHT22;8784;50.94667800;7.08448400;2023-04-25T01:45:44;8.50;99.90
17333;DHT22;8784;50.94667800;7.08448400;2023-04-25T01:48:12;8.60;99.90
17333;DHT22;8784;50.94667800;7.08448400;2023-04-25T01:50:41;8.60;99.90
17333;DHT22;8784;50.94667800;7.08448400;2023-04-25T01:53:09;8.60;99.90
17333;DHT22;8784;50.94667800;7.08448400;2023-04-25T01:55:37;8.70;99.90
17333;DHT22;8784;50.94667800;7.08448400;2023-04-25T01:58:05;8.70;99.90
17333;DHT22;8784;50.94667800;7.08448400;2023-04-25T02:00:34;8.70;99.90
17333;DHT22;8784;50.94667800;7.08448400;2023-04-25T02:03:03;8.70;99.90
17333;DHT22;8784;50.94667800;7.08448400;2023-04-25T02:05:34;8.60;99.90
17333;DHT22;8784;50.94667800;7.08448400;2023-04-25T02:08:02;8.60;99.90
17333;DHT22;8784;50.94667800;7.08448400;2023-04-25T02:10:29;8.50;99.90
17333;DHT22;8784;50.94667800;7.08448400;2023-04-25T02:12:58;8.50;99.90
17333;DHT22;8784;50.94667800;7.08448400;2023-04-25T02:15:25;8.40;99.90
17333;DHT22;8784;50.94667800;7.08448400;2023-04-25T02:17:52;8.40;99.90
17333;DHT22;8784;50.94667800;7.08448400;2023-04-25T02:20:20;8.30;99.90
17333;DHT22;8784;50.94667800;7.08448400;2023-04-25T02:22:47;8.20;99.90
17333;DHT22;8784;50.94667800;7.08448400;2023-04-25T02:25:14;8.30;99.90
17333;DHT22;8784;50.94667800;7.08448400;2023-04-25T02:27:41;8.20;99.90
17333;DHT22;8784;50.94667800;7.08448400;2023-04-25T02:30:10;8.20;99.90
17333;DHT22;8784;50.94667800;7.08448400;2023-04-25T02:32:38;8.20;99.90
17333;DHT22;8784;50.94667800;7.08448400;2023-04-25T02:35:06;8.10;99.90
17333;DHT22;8784;50.94667800;7.08448400;2023-04-25T02:37:34;8.10;99.90
17333;DHT22;8784;50.94667800;7.08448400;2023-04-25T02:40:01;8.20;99.90
17333;DHT22;8784;50.94667800;7.08448400;2023-04-25T02:42:30;8.20;99.90
17333;DHT22;8784;50.94667800;7.08448400;2023-04-25T02:44:57;8.30;99.90
17333;DHT22;8784;50.94667800;7.08448400;2023-04-25T02:47:25;8.30;99.90
17333;DHT22;8784;50.94667800;7.08448400;2023-04-25T02:49:52;8.30;99.90
17333;DHT22;8784;50.94667800;7.08448400;2023-04-25T02:52:19;8.40;99.90
17333;DHT22;8784;50.94667800;7.08448400;2023-04-25T02:54:46;8.30;99.90
17333;DHT22;8784;50.94667800;7.08448400;2023-04-25T02:57:13;8.40;99.90
17333;DHT22;8784;50.94667800;7.08448400;2023-04-25T02:59:40;8.40;99.90
17333;DHT22;8784;50.94667800;7.08448400;2023-04-25T03:02:07;8.40;99.90
17333;DHT22;8784;50.94667800;7.08448400;2023-04-25T03:04:35;8.40;99.90
17333;DHT22;8784;50.94667800;7.08448400;2023-04-25T03:07:02;8.40;99.90
17333;DHT22;8784;50.94667800;7.08448400;2023-04-25T03:09:28;8.40;99.90
17333;DHT22;8784;50.94667800;7.08448400;2023-04-25T03:11:55;8.50;99.90
17333;DHT22;8784;50.94667800;7.08448400;2023-04-25T03:14:22;8.50;99.90
17333;DHT22;8784;50.94667800;7.08448400;2023-04-25T03:16:49;8.50;99.90
17333;DHT22;8784;50.94667800;7.08448400;2023-04-25T03:19:16;8.50;99.90
17333;DHT22;8784;50.94667800;7.08448400;2023-04-25T03:21:45;8.50;99.90
17333;DHT22;8784;50.94667800;7.08448400;2023-04-25T03:24:12;8.50;99.90
17333;DHT22;8784;50.94667800;7.08448400;2023-04-25T03:26:38;8.50;99.90
17333;DHT22;8784;50.94667800;7.08448400;2023-04-25T03:29:05;8.50;99.90
17333;DHT22;8784;50.94667800;7.08448400;2023-04-25T03:31:32;8.50;99.90
17333;DHT22;8784;50.94667800;7.08448400;2023-04-25T03:33:59;8.50;99.90
17333;DHT22;8784;50.94667800;7.08448400;2023-04-25T03:36:26;8.50;99.90
17333;DHT22;8784;50.94667800;7.08448400;2023-04-25T03:38:54;8.60;99.90
17333;DHT22;8784;50.94667800;7.08448400;2023-04-25T03:41:21;8.50;99.90
17333;DHT22;8784;50.94667800;7.08448400;2023-04-25T03:43:48;8.50;99.90
17333;DHT22;8784;50.94667800;7.08448400;2023-04-25T03:46:15;8.60;99.90
17333;DHT22;8784;50.94667800;7.08448400;2023-04-25T03:48:42;8.60;99.90
17333;DHT22;8784;50.94667800;7.08448400;2023-04-25T03:51:08;8.60;99.90
17333;DHT22;8784;50.94667800;7.08448400;2023-04-25T03:53:35;8.60;99.90
17333;DHT22;8784;50.94667800;7.08448400;2023-04-25T03:56:04;8.60;99.90
17333;DHT22;8784;50.94667800;7.08448400;2023-04-25T03:58:31;8.60;99.90
17333;DHT22;8784;50.94667800;7.08448400;2023-04-25T04:00:58;8.70;99.90
17333;DHT22;8784;50.94667800;7.08448400;2023-04-25T04:03:25;8.60;99.90
17333;DHT22;8784;50.94667800;7.08448400;2023-04-25T04:05:51;8.70;99.90
17333;DHT22;8784;50.94667800;7.08448400;2023-04-25T04:08:18;8.70;99.90
17333;DHT22;8784;50.94667800;7.08448400;2023-04-25T04:10:45;8.70;99.90
17333;DHT22;8784;50.94667800;7.08448400;2023-04-25T04:13:13;8.70;99.90
17333;DHT22;8784;50.94667800;7.08448400;2023-04-25T04:15:40;8.70;99.90
17333;DHT22;8784;50.94667800;7.08448400;2023-04-25T04:18:07;8.70;99.90
17333;DHT22;8784;50.94667800;7.08448400;2023-04-25T04:20:34;8.70;99.90
17333;DHT22;8784;50.94667800;7.08448400;2023-04-25T04:23:01;8.70;99.90
17333;DHT22;8784;50.94667800;7.08448400;2023-04-25T04:25:28;8.80;99.90
17333;DHT22;8784;50.94667800;7.08448400;2023-04-25T04:27:55;8.80;99.90
17333;DHT22;8784;50.94667800;7.08448400;2023-04-25T04:30:24;8.90;99.90
17333;DHT22;8784;50.94667800;7.08448400;2023-04-25T04:32:55;8.90;99.90
17333;DHT22;8784;50.94667800;7.08448400;2023-04-25T04:35:22;9.00;99.90
17333;DHT22;8784;50.94667800;7.08448400;2023-04-25T04:37:49;9.00;99.90
17333;DHT22;8784;50.94667800;7.08448400;2023-04-25T04:40:16;9.10;99.90
17333;DHT22;8784;50.94667800;7.08448400;2023-04-25T04:42:44;9.00;99.90
17333;DHT22;8784;50.94667800;7.08448400;2023-04-25T04:45:11;9.10;99.90
17333;DHT22;8784;50.94667800;7.08448400;2023-04-25T04:47:39;9.10;99.90
17333;DHT22;8784;50.94667800;7.08448400;2023-04-25T04:50:07;9.20;99.90
17333;DHT22;8784;50.94667800;7.08448400;2023-04-25T04:52:35;9.20;99.90
17333;DHT22;8784;50.94667800;7.08448400;2023-04-25T04:55:02;9.20;99.90
17333;DHT22;8784;50.94667800;7.08448400;2023-04-25T04:57:29;9.30;99.90
17333;DHT22;8784;50.94667800;7.08448400;2023-04-25T04:59:56;9.30;99.90
17333;DHT22;8784;50.94667800;7.08448400;2023-04-25T05:02:23;9.30;99.90
17333;DHT22;8784;50.94667800;7.08448400;2023-04-25T05:04:52;9.30;99.90
17333;DHT22;8784;50.94667800;7.08448400;2023-04-25T05:07:19;9.40;99.90
17333;DHT22;8784;50.94667800;7.08448400;2023-04-25T05:09:46;9.40;99.90
17333;DHT22;8784;50.94667800;7.08448400;2023-04-25T05:12:13;9.30;99.90
17333;DHT22;8784;50.94667800;7.08448400;2023-04-25T05:14:39;9.40;99.90
17333;DHT22;8784;50.94667800;7.08448400;2023-04-25T05:17:06;9.40;99.90
17333;DHT22;8784;50.94667800;7.08448400;2023-04-25T05:19:34;9.50;99.90
17333;DHT22;8784;50.94667800;7.08448400;2023-04-25T05:22:02;9.50;99.90
17333;DHT22;8784;50.94667800;7.08448400;2023-04-25T05:24:29;9.50;99.90
17333;DHT22;8784;50.94667800;7.08448400;2023-04-25T05:26:57;9.60;99.90
17333;DHT22;8784;50.94667800;7.08448400;2023-04-25T05:29:24;9.60;99.90
17333;DHT22;8784;50.94667800;7.08448400;2023-04-25T05:31:51;9.60;99.90
17333;DHT22;8784;50.94667800;7.08448400;2023-04-25T05:34:18;9.60;99.90
17333;DHT22;8784;50.94667800;7.08448400;2023-04-25T05:36:45;9.60;99.90
17333;DHT22;8784;50.94667800;7.08448400;2023-04-25T05:39:16;9.60;99.90
17333;DHT22;8784;50.94667800;7.08448400;2023-04-25T05:41:43;9.60;99.90
17333;DHT22;8784;50.94667800;7.08448400;2023-04-25T05:44:10;9.70;99.90
17333;DHT22;8784;50.94667800;7.08448400;2023-04-25T05:46:37;9.90;99.90
17333;DHT22;8784;50.94667800;7.08448400;2023-04-25T05:49:03;9.90;99.90
17333;DHT22;8784;50.94667800;7.08448400;2023-04-25T05:51:30;10.00;99.90
17333;DHT22;8784;50.94667800;7.08448400;2023-04-25T05:53:58;10.20;99.90
17333;DHT22;8784;50.94667800;7.08448400;2023-04-25T05:56:26;10.20;99.90
17333;DHT22;8784;50.94667800;7.08448400;2023-04-25T05:58:53;10.30;99.90
17333;DHT22;8784;50.94667800;7.08448400;2023-04-25T06:01:21;10.30;99.90
17333;DHT22;8784;50.94667800;7.08448400;2023-04-25T06:03:48;10.40;99.90
17333;DHT22;8784;50.94667800;7.08448400;2023-04-25T06:06:16;10.40;99.90
17333;DHT22;8784;50.94667800;7.08448400;2023-04-25T06:08:43;10.40;99.90
17333;DHT22;8784;50.94667800;7.08448400;2023-04-25T06:11:11;10.40;99.90
17333;DHT22;8784;50.94667800;7.08448400;2023-04-25T06:13:39;10.50;99.90
17333;DHT22;8784;50.94667800;7.08448400;2023-04-25T06:16:06;10.60;99.90
17333;DHT22;8784;50.94667800;7.08448400;2023-04-25T06:18:33;10.60;99.90
17333;DHT22;8784;50.94667800;7.08448400;2023-04-25T06:21:00;10.70;99.90
17333;DHT22;8784;50.94667800;7.08448400;2023-04-25T06:23:27;10.80;99.90
17333;DHT22;8784;50.94667800;7.08448400;2023-04-25T06:25:53;10.90;99.90
17333;DHT22;8784;50.94667800;7.08448400;2023-04-25T06:28:20;11.00;99.90
17333;DHT22;8784;50.94667800;7.08448400;2023-04-25T06:30:50;11.60;99.90
17333;DHT22;8784;50.94667800;7.08448400;2023-04-25T06:33:17;12.00;99.90
17333;DHT22;8784;50.94667800;7.08448400;2023-04-25T06:35:43;13.80;99.90
17333;DHT22;8784;50.94667800;7.08448400;2023-04-25T06:38:11;14.80;99.90
17333;DHT22;8784;50.94667800;7.08448400;2023-04-25T06:40:38;15.20;99.90
17333;DHT22;8784;50.94667800;7.08448400;2023-04-25T06:43:04;15.20;99.90
17333;DHT22;8784;50.94667800;7.08448400;2023-04-25T06:45:31;15.00;99.10
17333;DHT22;8784;50.94667800;7.08448400;2023-04-25T06:47:59;14.50;98.80
17333;DHT22;8784;50.94667800;7.08448400;2023-04-25T06:50:26;14.20;98.80
17333;DHT22;8784;50.94667800;7.08448400;2023-04-25T06:52:53;14.00;98.90
17333;DHT22;8784;50.94667800;7.08448400;2023-04-25T06:55:20;13.90;98.90
17333;DHT22;8784;50.94667800;7.08448400;2023-04-25T06:57:47;14.30;99.00
17333;DHT22;8784;50.94667800;7.08448400;2023-04-25T07:00:14;14.40;98.50
17333;DHT22;8784;50.94667800;7.08448400;2023-04-25T07:02:41;15.70;98.10
17333;DHT22;8784;50.94667800;7.08448400;2023-04-25T07:05:10;16.50;96.50
17333;DHT22;8784;50.94667800;7.08448400;2023-04-25T07:07:37;17.50;95.30
17333;DHT22;8784;50.94667800;7.08448400;2023-04-25T07:10:05;18.00;93.60
17333;DHT22;8784;50.94667800;7.08448400;2023-04-25T07:12:32;17.80;92.40
17333;DHT22;8784;50.94667800;7.08448400;2023-04-25T07:14:58;17.50;91.70
17333;DHT22;8784;50.94667800;7.08448400;2023-04-25T07:17:31;17.20;91.50
17333;DHT22;8784;50.94667800;7.08448400;2023-04-25T07:19:58;16.60;91.10
17333;DHT22;8784;50.94667800;7.08448400;2023-04-25T07:22:26;16.20;91.30
17333;DHT22;8784;50.94667800;7.08448400;2023-04-25T07:24:53;15.80;91.40
17333;DHT22;8784;50.94667800;7.08448400;2023-04-25T07:27:20;15.60;91.20
17333;DHT22;8784;50.94667800;7.08448400;2023-04-25T07:29:47;15.60;91.30
17333;DHT22;8784;50.94667800;7.08448400;2023-04-25T07:32:14;15.50;91.20
17333;DHT22;8784;50.94667800;7.08448400;2023-04-25T07:34:41;15.20;91.20
17333;DHT22;8784;50.94667800;7.08448400;2023-04-25T07:37:08;15.10;91.40
17333;DHT22;8784;50.94667800;7.08448400;2023-04-25T07:39:36;14.90;91.10
17333;DHT22;8784;50.94667800;7.08448400;2023-04-25T07:42:04;14.70;91.00
17333;DHT22;8784;50.94667800;7.08448400;2023-04-25T07:44:33;14.60;91.30
17333;DHT22;8784;50.94667800;7.08448400;2023-04-25T07:47:04;14.80;91.30
17333;DHT22;8784;50.94667800;7.08448400;2023-04-25T07:49:32;15.30;91.40
17333;DHT22;8784;50.94667800;7.08448400;2023-04-25T07:52:00;15.40;91.00
17333;DHT22;8784;50.94667800;7.08448400;2023-04-25T07:54:27;15.60;90.80
17333;DHT22;8784;50.94667800;7.08448400;2023-04-25T07:56:55;15.60;90.40
17333;DHT22;8784;50.94667800;7.08448400;2023-04-25T07:59:22;15.50;90.00
17333;DHT22;8784;50.94667800;7.08448400;2023-04-25T08:01:49;15.40;89.90
17333;DHT22;8784;50.94667800;7.08448400;2023-04-25T08:04:16;15.30;89.40
17333;DHT22;8784;50.94667800;7.08448400;2023-04-25T08:06:43;15.30;89.70
17333;DHT22;8784;50.94667800;7.08448400;2023-04-25T08:09:11;15.40;89.30
17333;DHT22;8784;50.94667800;7.08448400;2023-04-25T08:11:38;15.60;89.10
17333;DHT22;8784;50.94667800;7.08448400;2023-04-25T08:14:06;16.00;88.90
17333;DHT22;8784;50.94667800;7.08448400;2023-04-25T08:16:33;16.30;87.80
17333;DHT22;8784;50.94667800;7.08448400;2023-04-25T08:19:00;16.60;87.00
17333;DHT22;8784;50.94667800;7.08448400;2023-04-25T08:21:27;17.50;86.30
17333;DHT22;8784;50.94667800;7.08448400;2023-04-25T08:23:54;18.10;84.30
17333;DHT22;8784;50.94667800;7.08448400;2023-04-25T08:26:22;18.40;82.90
17333;DHT22;8784;50.94667800;7.08448400;2023-04-25T08:28:48;18.40;81.50
17333;DHT22;8784;50.94667800;7.08448400;2023-04-25T08:31:17;18.10;79.90
17333;DHT22;8784;50.94667800;7.08448400;2023-04-25T08:33:44;17.80;79.60
17333;DHT22;8784;50.94667800;7.08448400;2023-04-25T08:36:11;17.50;79.50
17333;DHT22;8784;50.94667800;7.08448400;2023-04-25T08:38:38;17.20;79.40
17333;DHT22;8784;50.94667800;7.08448400;2023-04-25T08:41:05;16.80;78.90
17333;DHT22;8784;50.94667800;7.08448400;2023-04-25T08:43:35;16.30;78.90
17333;DHT22;8784;50.94667800;7.08448400;2023-04-25T08:46:01;16.00;79.70
17333;DHT22;8784;50.94667800;7.08448400;2023-04-25T08:48:32;15.70;79.70
17333;DHT22;8784;50.94667800;7.08448400;2023-04-25T08:51:01;15.40;80.00
17333;DHT22;8784;50.94667800;7.08448400;2023-04-25T08:53:30;15.10;80.00
17333;DHT22;8784;50.94667800;7.08448400;2023-04-25T08:55:59;14.80;80.60
17333;DHT22;8784;50.94667800;7.08448400;2023-04-25T08:58:28;14.30;80.00
17333;DHT22;8784;50.94667800;7.08448400;2023-04-25T09:00:55;13.70;80.70
17333;DHT22;8784;50.94667800;7.08448400;2023-04-25T09:03:22;13.50;81.60
17333;DHT22;8784;50.94667800;7.08448400;2023-04-25T09:05:51;13.30;81.70
17333;DHT22;8784;50.94667800;7.08448400;2023-04-25T09:08:18;13.10;82.10
17333;DHT22;8784;50.94667800;7.08448400;2023-04-25T09:10:45;13.00;82.70
17333;DHT22;8784;50.94667800;7.08448400;2023-04-25T09:13:13;12.80;82.60
17333;DHT22;8784;50.94667800;7.08448400;2023-04-25T09:15:48;12.70;82.80
17333;DHT22;8784;50.94667800;7.08448400;2023-04-25T09:18:22;12.60;82.90
17333;DHT22;8784;50.94667800;7.08448400;2023-04-25T09:20:52;12.50;83.30
17333;DHT22;8784;50.94667800;7.08448400;2023-04-25T09:23:20;12.50;83.70
17333;DHT22;8784;50.94667800;7.08448400;2023-04-25T09:25:47;12.50;83.90
17333;DHT22;8784;50.94667800;7.08448400;2023-04-25T09:28:14;12.60;84.00
17333;DHT22;8784;50.94667800;7.08448400;2023-04-25T09:30:41;12.90;84.20
17333;DHT22;8784;50.94667800;7.08448400;2023-04-25T09:33:10;13.20;84.00
17333;DHT22;8784;50.94667800;7.08448400;2023-04-25T09:35:38;13.70;83.50
17333;DHT22;8784;50.94667800;7.08448400;2023-04-25T09:38:11;14.10;82.90
17333;DHT22;8784;50.94667800;7.08448400;2023-04-25T09:40:41;14.70;82.50
17333;DHT22;8784;50.94667800;7.08448400;2023-04-25T09:43:09;15.40;81.90
17333;DHT22;8784;50.94667800;7.08448400;2023-04-25T09:45:43;15.90;80.60
17333;DHT22;8784;50.94667800;7.08448400;2023-04-25T09:48:17;16.00;79.30
17333;DHT22;8784;50.94667800;7.08448400;2023-04-25T09:50:43;15.70;78.70
17333;DHT22;8784;50.94667800;7.08448400;2023-04-25T09:53:12;15.50;78.20
17333;DHT22;8784;50.94667800;7.08448400;2023-04-25T09:55:40;15.20;78.50
17333;DHT22;8784;50.94667800;7.08448400;2023-04-25T09:58:11;14.90;78.80
17333;DHT22;8784;50.94667800;7.08448400;2023-04-25T10:00:38;14.70;78.80
17333;DHT22;8784;50.94667800;7.08448400;2023-04-25T10:03:06;14.40;78.90
17333;DHT22;8784;50.94667800;7.08448400;2023-04-25T10:05:34;14.20;79.10
17333;DHT22;8784;50.94667800;7.08448400;2023-04-25T10:08:03;14.00;79.30
17333;DHT22;8784;50.94667800;7.08448400;2023-04-25T10:10:32;14.10;79.50
17333;DHT22;8784;50.94667800;7.08448400;2023-04-25T10:13:05;14.20;79.70
17333;DHT22;8784;50.94667800;7.08448400;2023-04-25T10:15:35;14.20;79.70
17333;DHT22;8784;50.94667800;7.08448400;2023-04-25T10:18:03;14.20;79.70
17333;DHT22;8784;50.94667800;7.08448400;2023-04-25T10:20:30;14.10;79.10
17333;DHT22;8784;50.94667800;7.08448400;2023-04-25T10:23:03;14.00;78.70
17333;DHT22;8784;50.94667800;7.08448400;2023-04-25T10:25:35;13.90;78.70
17333;DHT22;8784;50.94667800;7.08448400;2023-04-25T10:28:03;13.80;78.80
17333;DHT22;8784;50.94667800;7.08448400;2023-04-25T10:30:30;13.80;78.70
17333;DHT22;8784;50.94667800;7.08448400;2023-04-25T10:32:59;13.80;78.50
17333;DHT22;8784;50.94667800;7.08448400;2023-04-25T10:35:27;13.80;78.30
17333;DHT22;8784;50.94667800;7.08448400;2023-04-25T10:37:59;14.00;78.20
17333;DHT22;8784;50.94667800;7.08448400;2023-04-25T10:40:26;14.30;77.80
17333;DHT22;8784;50.94667800;7.08448400;2023-04-25T10:42:55;14.40;77.40
17333;DHT22;8784;50.94667800;7.08448400;2023-04-25T10:45:22;14.60;76.90
17333;DHT22;8784;50.94667800;7.08448400;2023-04-25T10:47:49;16.00;76.30
17333;DHT22;8784;50.94667800;7.08448400;2023-04-25T10:50:16;17.20;74.00
17333;DHT22;8784;50.94667800;7.08448400;2023-04-25T10:52:43;17.30;72.40
17333;DHT22;8784;50.94667800;7.08448400;2023-04-25T10:55:11;17.00;71.90
17333;DHT22;8784;50.94667800;7.08448400;2023-04-25T10:57:40;16.70;71.50
17333;DHT22;8784;50.94667800;7.08448400;2023-04-25T11:00:14;16.10;71.10
17333;DHT22;8784;50.94667800;7.08448400;2023-04-25T11:02:42;15.60;72.00
17333;DHT22;8784;50.94667800;7.08448400;2023-04-25T11:05:11;15.10;72.50
17333;DHT22;8784;50.94667800;7.08448400;2023-04-25T11:07:48;14.70;73.00
17333;DHT22;8784;50.94667800;7.08448400;2023-04-25T11:10:16;14.30;73.50
17333;DHT22;8784;50.94667800;7.08448400;2023-04-25T11:12:43;14.10;74.10
17333;DHT22;8784;50.94667800;7.08448400;2023-04-25T11:15:12;14.00;74.40
17333;DHT22;8784;50.94667800;7.08448400;2023-04-25T11:17:40;13.90;74.90
17333;DHT22;8784;50.94667800;7.08448400;2023-04-25T11:20:07;13.80;75.00
17333;DHT22;8784;50.94667800;7.08448400;2023-04-25T11:22:37;13.80;74.90
17333;DHT22;8784;50.94667800;7.08448400;2023-04-25T11:25:05;13.80;74.90
17333;DHT22;8784;50.94667800;7.08448400;2023-04-25T11:27:33;14.00;75.10
17333;DHT22;8784;50.94667800;7.08448400;2023-04-25T11:30:11;14.20;75.50
17333;DHT22;8784;50.94667800;7.08448400;2023-04-25T11:32:40;14.60;74.60
17333;DHT22;8784;50.94667800;7.08448400;2023-04-25T11:35:08;14.80;74.40
17333;DHT22;8784;50.94667800;7.08448400;2023-04-25T11:37:35;15.00;73.60
17333;DHT22;8784;50.94667800;7.08448400;2023-04-25T11:40:03;15.30;73.50
17333;DHT22;8784;50.94667800;7.08448400;2023-04-25T11:42:32;15.60;72.90
17333;DHT22;8784;50.94667800;7.08448400;2023-04-25T11:44:59;15.90;72.50
17333;DHT22;8784;50.94667800;7.08448400;2023-04-25T11:47:31;16.00;72.40
17333;DHT22;8784;50.94667800;7.08448400;2023-04-25T11:49:59;16.10;72.60
17333;DHT22;8784;50.94667800;7.08448400;2023-04-25T11:52:36;16.00;71.30
17333;DHT22;8784;50.94667800;7.08448400;2023-04-25T11:55:05;15.90;70.70
17333;DHT22;8784;50.94667800;7.08448400;2023-04-25T11:57:32;15.80;70.60
17333;DHT22;8784;50.94667800;7.08448400;2023-04-25T12:00:06;16.00;70.60
17333;DHT22;8784;50.94667800;7.08448400;2023-04-25T12:02:36;16.20;70.50
17333;DHT22;8784;50.94667800;7.08448400;2023-04-25T12:05:06;16.50;70.30
17333;DHT22;8784;50.94667800;7.08448400;2023-04-25T12:07:34;16.70;69.60
17333;DHT22;8784;50.94667800;7.08448400;2023-04-25T12:10:05;16.70;69.40
17333;DHT22;8784;50.94667800;7.08448400;2023-04-25T12:12:33;16.60;68.80
17333;DHT22;8784;50.94667800;7.08448400;2023-04-25T12:15:09;16.40;68.50
17333;DHT22;8784;50.94667800;7.08448400;2023-04-25T12:17:38;16.10;68.30
17333;DHT22;8784;50.94667800;7.08448400;2023-04-25T12:20:07;16.10;68.60
17333;DHT22;8784;50.94667800;7.08448400;2023-04-25T12:22:35;16.00;68.30
17333;DHT22;8784;50.94667800;7.08448400;2023-04-25T12:25:03;16.00;68.30
17333;DHT22;8784;50.94667800;7.08448400;2023-04-25T12:27:31;16.00;67.70
17333;DHT22;8784;50.94667800;7.08448400;2023-04-25T12:29:59;15.90;67.60
17333;DHT22;8784;50.94667800;7.08448400;2023-04-25T12:32:26;15.70;67.70
17333;DHT22;8784;50.94667800;7.08448400;2023-04-25T12:34:54;15.70;68.10
17333;DHT22;8784;50.94667800;7.08448400;2023-04-25T12:37:21;15.60;67.70
17333;DHT22;8784;50.94667800;7.08448400;2023-04-25T12:39:48;15.50;67.60
17333;DHT22;8784;50.94667800;7.08448400;2023-04-25T12:42:16;15.70;67.80
17333;DHT22;8784;50.94667800;7.08448400;2023-04-25T12:44:42;15.80;67.30
17333;DHT22;8784;50.94667800;7.08448400;2023-04-25T12:47:10;15.90;67.00
17333;DHT22;8784;50.94667800;7.08448400;2023-04-25T12:49:37;15.90;66.80
17333;DHT22;8784;50.94667800;7.08448400;2023-04-25T12:52:05;16.00;66.40
17333;DHT22;8784;50.94667800;7.08448400;2023-04-25T12:54:32;16.10;66.40
17333;DHT22;8784;50.94667800;7.08448400;2023-04-25T12:56:59;16.10;65.80
17333;DHT22;8784;50.94667800;7.08448400;2023-04-25T12:59:28;15.90;65.60
17333;DHT22;8784;50.94667800;7.08448400;2023-04-25T13:01:55;15.70;65.50
17333;DHT22;8784;50.94667800;7.08448400;2023-04-25T13:04:22;15.50;66.20
17333;DHT22;8784;50.94667800;7.08448400;2023-04-25T13:06:49;15.30;66.10
17333;DHT22;8784;50.94667800;7.08448400;2023-04-25T13:09:17;15.30;66.60
17333;DHT22;8784;50.94667800;7.08448400;2023-04-25T13:11:44;15.30;66.10
17333;DHT22;8784;50.94667800;7.08448400;2023-04-25T13:14:11;15.10;66.50
17333;DHT22;8784;50.94667800;7.08448400;2023-04-25T13:16:38;15.10;66.50
17333;DHT22;8784;50.94667800;7.08448400;2023-04-25T13:19:05;14.90;66.60
17333;DHT22;8784;50.94667800;7.08448400;2023-04-25T13:21:33;14.70;67.00
17333;DHT22;8784;50.94667800;7.08448400;2023-04-25T13:24:00;14.60;66.70
17333;DHT22;8784;50.94667800;7.08448400;2023-04-25T13:26:28;14.50;66.50
17333;DHT22;8784;50.94667800;7.08448400;2023-04-25T13:28:55;14.70;66.90
17333;DHT22;8784;50.94667800;7.08448400;2023-04-25T13:31:22;15.00;66.60
17333;DHT22;8784;50.94667800;7.08448400;2023-04-25T13:33:50;15.30;66.30
17333;DHT22;8784;50.94667800;7.08448400;2023-04-25T13:36:16;15.40;65.20
17333;DHT22;8784;50.94667800;7.08448400;2023-04-25T13:38:43;15.30;66.10
17333;DHT22;8784;50.94667800;7.08448400;2023-04-25T13:41:12;15.40;65.40
17333;DHT22;8784;50.94667800;7.08448400;2023-04-25T13:43:45;15.50;65.70